Time;durP1;ratioP1;P1;durP2;ratioP2;P2;SDS_P1;SDS_P2;PMS_P1;PMS_P2;Temp;Humidity;BMP_temperature;BMP_pressure;BME280_temperature;BME280_humidity;BME280_pressure;Samples;Min_cycle;Max_cycle;Signal;HPM_P1;HPM_P2
2021/12/17 00:00:27;;;;;;;8.17;5.63;;;;;;;-145.06;0.00;60892.56;4705109;29;20379;-87
2021/12/17 00:03:15;;;;;;;9.53;5.77;;;;;;;187.52;0.00;60892.56;4735608;29;20037;-88
2021/12/17 00:06:12;;;;;;;9.75;5.68;;;;;;;-145.06;0.00;60892.56;4722653;29;20032;-88
2021/12/17 00:08:53;;;;;;;8.02;5.15;;;;;;;-145.06;0.00;60892.56;4724877;29;20379;-88
2021/12/17 00:11:33;;;;;;;7.85;5.43;;;;;;;-145.06;0.00;60892.56;4727127;29;20043;-87
2021/12/17 00:14:18;;;;;;;9.05;5.05;;;;;;;-145.06;0.00;60892.56;4727012;29;20123;-87
2021/12/17 00:17:00;;;;;;;10.13;5.43;;;;;;;-145.06;0.00;60892.56;4721668;29;20040;-86
2021/12/17 00:43:49;;;;;;;9.30;5.18;;;;;;;-145.06;0.00;60892.56;4719947;29;20044;-88
2021/12/17 00:49:17;;;;;;;7.68;4.95;;;;;;;-145.06;0.00;60892.56;4724379;29;20021;-89
2021/12/17 00:54:39;;;;;;;;;;;;;;;-145.06;0.00;60892.56;4729804;29;20029;-88
2021/12/17 00:57:23;;;;;;;7.03;4.65;;;;;;;-145.06;0.00;60892.56;4722752;29;19919;-88
2021/12/17 01:00:07;;;;;;;9.57;5.25;;;;;;;-145.06;0.00;60892.56;4725540;29;20384;-87
2021/12/17 01:02:47;;;;;;;7.90;5.20;;;;;;;-145.06;0.00;60892.56;4729439;29;20025;-88
2021/12/17 01:05:29;;;;;;;8.20;5.03;;;;;;;-145.06;0.00;60892.56;4734031;29;20017;-88
2021/12/17 01:08:08;;;;;;;9.52;5.75;;;;;;;-145.06;0.00;60892.56;4720068;29;20044;-87
2021/12/17 01:10:54;;;;;;;8.03;5.43;;;;;;;-145.06;0.00;60892.56;4733420;29;20119;-88
2021/12/17 01:13:37;;;;;;;9.32;5.93;;;;;;;-145.06;0.00;60892.56;4719056;29;20040;-87
2021/12/17 01:16:16;;;;;;;8.10;5.22;;;;;;;-145.06;0.00;60892.56;4716498;29;20036;-88
2021/12/17 01:19:17;;;;;;;11.02;5.80;;;;;;;-145.06;0.00;60892.56;4719982;29;20040;-86
2021/12/17 01:22:29;;;;;;;8.55;5.68;;;;;;;-145.06;0.00;60892.56;4730502;29;20044;-87
2021/12/17 01:25:07;;;;;;;7.45;4.75;;;;;;;-145.06;0.00;60892.56;4732345;29;20063;-88
2021/12/17 01:36:41;;;;;;;8.30;5.18;;;;;;;-145.06;0.00;60892.56;4731440;29;20028;-88
2021/12/17 01:40:26;;;;;;;9.73;5.90;;;;;;;-145.06;0.00;60892.56;4728654;29;20486;-87
2021/12/17 01:42:19;;;;;;;7.27;4.97;;;;;;;-145.06;0.00;60892.56;4726913;29;20642;-88
2021/12/17 01:44:59;;;;;;;10.20;5.65;;;;;;;-145.06;0.00;60892.56;4721729;29;20285;-88
2021/12/17 01:47:38;;;;;;;8.90;5.38;;;;;;;-145.06;0.00;60892.56;4733244;29;20036;-87
2021/12/17 02:02:01;;;;;;;11.33;6.37;;;;;;;-145.06;0.00;60892.56;4721382;29;20289;-87
2021/12/17 02:04:39;;;;;;;10.93;6.07;;;;;;;-145.06;0.00;60892.56;4722692;29;20285;-88
2021/12/17 02:07:18;;;;;;;11.77;6.37;;;;;;;-145.06;0.00;60892.56;4725813;29;20032;-87
2021/12/17 02:10:30;;;;;;;12.90;6.27;;;;;;;-145.06;0.00;60892.56;4722124;29;20039;-87
2021/12/17 02:22:08;;;;;;;10.35;6.80;;;;;;;11.13;0.00;60892.56;4733482;29;20522;-87
2021/12/17 02:33:25;;;;;;;9.68;5.75;;;;;;;-145.06;0.00;60892.56;4720797;29;20060;-88
2021/12/17 02:36:05;;;;;;;11.07;5.97;;;;;;;-145.06;0.00;60892.56;4717835;29;20044;-87
2021/12/17 02:38:45;;;;;;;8.80;5.15;;;;;;;-145.06;0.00;60892.56;4731967;29;20032;-88
2021/12/17 02:47:21;;;;;;;7.65;5.10;;;;;;;10.92;0.00;60892.56;4729793;29;20020;-87
2021/12/17 02:50:00;;;;;;;8.32;5.07;;;;;;;-145.06;0.00;60892.56;4739187;29;20036;-88
2021/12/17 02:52:40;;;;;;;9.63;5.03;;;;;;;-145.06;0.00;60892.56;4713031;29;20040;-87
2021/12/17 02:55:21;;;;;;;6.97;4.70;;;;;;;10.93;0.00;60892.56;4717880;29;20624;-87
2021/12/17 02:58:01;;;;;;;7.82;4.97;;;;;;;10.91;0.00;60892.56;4731880;29;20044;-87
2021/12/17 03:00:40;;;;;;;;;;;;;;;-145.06;0.00;60892.56;4711434;29;20044;-87
2021/12/17 03:03:22;;;;;;;7.07;4.30;;;;;;;-145.06;0.00;60892.56;4737560;29;19919;-87
2021/12/17 03:06:02;;;;;;;10.48;5.20;;;;;;;-145.06;0.00;60892.56;4717024;29;20032;-87
2021/12/17 03:08:42;;;;;;;7.85;5.22;;;;;;;-145.06;0.00;60892.56;4717727;29;20388;-87
2021/12/17 03:11:20;;;;;;;7.95;5.03;;;;;;;-145.06;0.00;60892.56;4728976;29;20040;-88
2021/12/17 03:13:59;;;;;;;8.90;5.33;;;;;;;-145.06;0.00;60892.56;4717387;29;20041;-87
2021/12/17 03:16:53;;;;;;;7.38;4.38;;;;;;;11.01;0.00;60892.56;4717047;29;20032;-87
2021/12/17 03:25:28;;;;;;;8.60;4.60;;;;;;;10.78;0.00;60892.56;4735300;29;20119;-87
2021/12/17 03:28:08;;;;;;;8.07;4.82;;;;;;;-145.06;0.00;60892.56;4740715;29;20037;-87
2021/12/17 03:30:47;;;;;;;6.53;4.33;;;;;;;-145.06;0.00;60892.56;4736367;29;20491;-87
2021/12/17 03:33:27;;;;;;;8.40;4.57;;;;;;;-145.06;0.00;60892.56;4718967;29;20029;-87
2021/12/17 03:36:06;;;;;;;6.53;4.30;;;;;;;-145.06;0.00;60892.56;4717696;29;20041;-86
2021/12/17 03:38:48;;;;;;;6.82;4.53;;;;;;;-145.06;0.00;60892.56;4727909;29;20028;-87
2021/12/17 03:41:35;;;;;;;7.10;4.18;;;;;;;-145.06;0.00;60892.56;4732207;29;20032;-88
2021/12/17 03:44:14;;;;;;;6.75;4.30;;;;;;;-145.06;0.00;60892.56;4727568;29;20040;-87
2021/12/17 03:46:53;;;;;;;5.97;3.75;;;;;;;11.01;0.00;60892.56;4716269;29;20033;-87
2021/12/17 03:49:36;;;;;;;7.68;4.28;;;;;;;-145.06;0.00;60892.56;4719781;29;20045;-88
2021/12/17 03:52:16;;;;;;;7.45;4.53;;;;;;;-145.06;0.00;60892.56;4736225;29;20036;-87
2021/12/17 03:54:55;;;;;;;7.25;4.10;;;;;;;10.64;0.00;60892.56;4722555;29;20037;-89
2021/12/17 03:57:35;;;;;;;6.43;3.90;;;;;;;-145.06;0.00;60892.56;4733706;29;20044;-87
2021/12/17 04:00:14;;;;;;;7.20;4.60;;;;;;;-145.06;0.00;60892.56;4723501;29;20028;-87
2021/12/17 04:02:53;;;;;;;6.78;4.20;;;;;;;-145.06;0.00;60892.56;4716152;29;20064;-87
2021/12/17 04:05:33;;;;;;;6.50;4.32;;;;;;;-145.06;0.00;60892.56;4728013;29;20036;-87
2021/12/17 04:08:12;;;;;;;7.30;4.57;;;;;;;10.61;0.00;60892.56;4733719;29;20040;-88
2021/12/17 04:10:54;;;;;;;5.93;3.80;;;;;;;10.58;0.00;60892.56;4717427;29;20067;-88
2021/12/17 04:13:38;;;;;;;6.65;4.05;;;;;;;10.53;0.00;60892.56;4731688;29;20044;-88
2021/12/17 04:16:22;;;;;;;6.78;3.90;;;;;;;-145.06;0.00;60892.56;4712962;29;20479;-89
2021/12/17 04:19:01;;;;;;;5.53;3.60;;;;;;;-145.06;0.00;60892.56;4716886;29;20032;-87
2021/12/17 04:21:42;;;;;;;6.97;4.25;;;;;;;-145.06;0.00;60892.56;4728493;29;20033;-88
2021/12/17 04:24:21;;;;;;;5.93;3.67;;;;;;;-145.06;0.00;60892.56;4756514;29;20036;-89
2021/12/17 04:27:00;;;;;;;6.47;4.05;;;;;;;-145.06;0.00;60892.56;4751472;29;20029;-88
2021/12/17 04:29:42;;;;;;;6.88;3.97;;;;;;;-145.06;0.00;60892.56;4723229;29;20040;-88
2021/12/17 04:32:22;;;;;;;6.25;3.92;;;;;;;10.47;0.00;60892.56;4726791;29;20036;-88
2021/12/17 04:35:01;;;;;;;6.47;4.18;;;;;;;-145.06;0.00;60892.56;4728099;29;20032;-87
2021/12/17 04:37:40;;;;;;;6.43;3.75;;;;;;;-145.06;0.00;60892.56;4715344;29;20040;-86
2021/12/17 04:40:22;;;;;;;6.53;3.83;;;;;;;-145.06;0.00;60892.56;4723832;29;20037;-88
2021/12/17 04:43:21;;;;;;;5.65;3.83;;;;;;;10.43;0.00;60892.56;4717475;29;20055;-88
2021/12/17 04:46:18;;;;;;;6.88;3.97;;;;;;;-145.06;0.00;60892.56;4715201;29;20032;-87
2021/12/17 04:57:57;;;;;;;5.30;3.40;;;;;;;10.36;0.00;60892.56;4736360;29;20111;-86
2021/12/17 05:00:37;;;;;;;4.75;3.17;;;;;;;-145.06;0.00;60892.56;4734437;29;20035;-88
2021/12/17 05:03:15;;;;;;;4.30;2.88;;;;;;;-145.06;0.00;60892.56;4716711;29;20126;-88
2021/12/17 05:05:54;;;;;;;4.53;3.10;;;;;;;-145.06;0.00;60892.56;4726218;29;20112;-87
2021/12/17 05:08:34;;;;;;;4.80;3.17;;;;;;;-145.06;0.00;60892.56;4709593;29;20479;-88
2021/12/17 05:18:13;;;;;;;5.25;3.40;;;;;;;-145.06;0.00;60892.56;4743737;29;20036;-88
2021/12/17 05:23:05;;;;;;;3.90;2.95;;;;;;;-145.06;0.00;60892.56;4743721;29;20027;-87
2021/12/17 05:25:43;;;;;;;3.87;2.50;;;;;;;-145.06;0.00;60892.56;4727153;29;20032;-87
2021/12/17 05:28:22;;;;;;;5.13;3.10;;;;;;;10.40;0.00;60892.56;4732219;29;20316;-87
2021/12/17 05:31:02;;;;;;;4.65;3.10;;;;;;;-145.06;0.00;60892.56;4717426;29;20498;-87
2021/12/17 05:33:41;;;;;;;4.28;3.08;;;;;;;10.37;0.00;60892.56;4717966;29;20486;-87
2021/12/17 05:36:23;;;;;;;4.32;3.10;;;;;;;-145.06;0.00;60892.56;4724346;29;20098;-88
2021/12/17 05:39:02;;;;;;;5.03;3.13;;;;;;;-145.06;0.00;60892.56;4730064;29;20482;-87
2021/12/17 05:41:42;;;;;;;4.15;2.85;;;;;;;-145.06;0.00;60892.56;4726626;29;20114;-87
2021/12/17 05:44:21;;;;;;;5.80;2.90;;;;;;;10.42;0.00;60892.56;4721602;29;20040;-88
2021/12/17 05:47:00;;;;;;;4.00;2.65;;;;;;;-145.06;0.00;60892.56;4720280;29;20070;-87
2021/12/17 05:49:39;;;;;;;4.33;2.93;;;;;;;-145.06;0.00;60892.56;4712285;29;20037;-87
2021/12/17 05:52:18;;;;;;;3.93;2.83;;;;;;;10.37;0.00;60892.56;4729134;29;20032;-87
2021/12/17 05:54:57;;;;;;;4.35;2.80;;;;;;;-145.06;0.00;60892.56;4713868;29;20075;-87
2021/12/17 05:57:36;;;;;;;4.70;2.90;;;;;;;10.39;0.00;60892.56;4719643;29;20044;-87
2021/12/17 06:00:16;;;;;;;4.20;2.70;;;;;;;10.39;0.00;60892.56;4733638;29;20894;-87
2021/12/17 06:02:54;;;;;;;;;;;;;;;-145.06;0.00;60892.56;4728486;29;20550;-88
2021/12/17 06:05:34;;;;;;;3.60;2.50;;;;;;;-145.06;0.00;60892.56;4719796;29;19915;-87
2021/12/17 06:08:13;;;;;;;5.60;2.90;;;;;;;-145.06;0.00;60892.56;4715549;29;20693;-87
2021/12/17 06:10:54;;;;;;;4.07;2.50;;;;;;;-145.06;0.00;60892.56;4722757;29;20284;-87
2021/12/17 06:13:33;;;;;;;3.78;2.50;;;;;;;-145.06;0.00;60892.56;4712484;29;20029;-87
2021/12/17 06:16:12;;;;;;;5.53;2.78;;;;;;;-145.06;0.00;60892.56;4726932;29;20036;-88
2021/12/17 06:18:51;;;;;;;3.90;2.75;;;;;;;-145.06;0.00;60892.56;4715145;29;20115;-89
2021/12/17 06:21:30;;;;;;;4.27;2.43;;;;;;;10.37;0.00;60892.56;4716329;29;20622;-88
2021/12/17 06:24:09;;;;;;;5.27;2.90;;;;;;;-145.06;0.00;60892.56;4722235;29;20045;-88
2021/12/17 06:26:48;;;;;;;3.17;2.28;;;;;;;-145.06;0.00;60892.56;4721928;29;20036;-89
2021/12/17 06:29:27;;;;;;;3.67;2.22;;;;;;;-145.06;0.00;60892.56;4726411;29;20112;-88
2021/12/17 06:32:07;;;;;;;3.53;2.53;;;;;;;10.36;0.00;60892.56;4714376;29;20036;-88
2021/12/17 06:34:46;;;;;;;3.30;2.10;;;;;;;-145.06;0.00;60892.56;4724865;29;20032;-87
2021/12/17 06:37:26;;;;;;;3.90;2.50;;;;;;;10.38;0.00;60892.56;4722290;29;20037;-88
2021/12/17 06:40:05;;;;;;;2.90;2.10;;;;;;;10.40;0.00;60892.56;4711575;29;20483;-89
2021/12/17 06:42:45;;;;;;;3.38;2.30;;;;;;;10.39;0.00;60892.56;4716419;29;20431;-89
2021/12/17 06:45:40;;;;;;;;;;;;;;;-145.06;0.00;60892.56;4711609;29;20044;-88
2021/12/17 06:48:24;;;;;;;3.00;1.73;;;;;;;-145.06;0.00;60892.56;4715546;29;20409;-88
2021/12/17 06:57:54;;;;;;;2.75;1.83;;;;;;;-145.06;0.00;60892.56;4725263;29;20380;-89
2021/12/17 07:11:56;;;;;;;3.17;2.17;;;;;;;-145.06;0.00;60892.56;4670261;29;20033;-88
2021/12/17 07:17:40;;;;;;;4.03;2.17;;;;;;;10.37;0.00;60892.56;4730855;29;20040;-88
2021/12/17 07:23:47;;;;;;;3.50;2.30;;;;;;;-145.06;0.00;60892.56;4729793;29;20032;-88
2021/12/17 07:31:03;;;;;;;3.42;2.30;;;;;;;-145.06;0.00;60892.56;4728937;29;20032;-88
2021/12/17 07:40:19;;;;;;;4.32;2.67;;;;;;;-145.06;0.00;60892.56;4740323;29;20265;-90
2021/12/17 07:43:01;;;;;;;3.58;2.40;;;;;;;-145.06;0.00;60892.56;4757081;29;20032;-89
2021/12/17 07:45:41;;;;;;;5.50;2.90;;;;;;;-145.06;0.00;60892.56;4738016;29;20072;-90
2021/12/17 07:48:20;;;;;;;4.72;3.25;;;;;;;-145.06;0.00;60892.56;4723535;29;20376;-88
2021/12/17 07:51:08;;;;;;;4.47;3.00;;;;;;;-145.06;0.00;60892.56;4722734;29;20033;-89
2021/12/17 07:53:49;;;;;;;4.88;2.97;;;;;;;-145.06;0.00;60892.56;4736059;29;20028;-89
2021/12/17 07:56:37;;;;;;;4.22;2.80;;;;;;;-145.06;0.00;60892.56;4721814;29;20072;-89
2021/12/17 07:59:16;;;;;;;4.03;2.53;;;;;;;-145.06;0.00;60892.56;4733745;29;20021;-89
2021/12/17 08:01:55;;;;;;;5.20;3.17;;;;;;;-145.06;0.00;60892.56;4728758;29;20036;-88
2021/12/17 08:04:34;;;;;;;4.10;2.75;;;;;;;-145.06;0.00;60892.56;4719841;29;20036;-89
2021/12/17 08:07:13;;;;;;;4.47;2.80;;;;;;;10.43;0.00;60892.56;4717983;29;20068;-87
2021/12/17 08:09:52;;;;;;;4.80;3.23;;;;;;;-145.06;0.00;60892.56;4719418;29;20043;-88
2021/12/17 08:12:31;;;;;;;4.38;2.85;;;;;;;-145.06;0.00;60892.56;4714471;29;20744;-88
2021/12/17 08:15:14;;;;;;;4.78;2.95;;;;;;;-145.06;0.00;60892.56;4730359;29;20037;-89
2021/12/17 08:18:21;;;;;;;4.57;2.75;;;;;;;10.68;0.00;60892.56;4728917;29;20032;-88
2021/12/17 08:29:56;;;;;;;4.30;2.42;;;;;;;-145.06;0.00;60892.56;4742199;29;20506;-88
2021/12/17 08:32:35;;;;;;;5.70;3.33;;;;;;;10.40;0.00;60892.56;4696573;29;20377;-88
2021/12/17 08:35:14;;;;;;;5.93;3.97;;;;;;;-145.06;0.00;60892.56;4705641;29;20029;-88
2021/12/17 08:37:54;;;;;;;7.47;4.87;;;;;;;-145.06;0.00;60892.56;4725446;29;20383;-89
2021/12/17 08:40:34;;;;;;;9.50;5.88;;;;;;;-145.06;0.00;60892.56;4722395;29;20024;-88
2021/12/17 08:43:12;;;;;;;;;;;;;;;-145.06;0.00;60892.56;4717001;29;20115;-89
2021/12/17 08:45:57;;;;;;;7.70;4.57;;;;;;;-145.06;0.00;60892.56;4726747;29;19911;-89
2021/12/17 08:48:37;;;;;;;8.48;4.28;;;;;;;-145.06;0.00;60892.56;4729334;29;20348;-88
2021/12/17 08:51:16;;;;;;;;;;;;;;;10.48;0.00;60892.56;4729166;29;20044;-89
2021/12/17 08:53:55;;;;;;;8.00;4.07;;;;;;;10.52;0.00;60892.56;4713398;29;19916;-89
2021/12/17 08:56:36;;;;;;;6.40;3.75;;;;;;;-145.06;0.00;60892.56;4713346;29;20277;-89
2021/12/17 08:59:17;;;;;;;7.93;4.68;;;;;;;-145.06;0.00;60892.56;4734538;29;20024;-88
2021/12/17 09:01:57;;;;;;;8.73;4.65;;;;;;;10.41;0.00;60892.56;4713454;29;20028;-89
2021/12/17 09:04:36;;;;;;;8.55;4.93;;;;;;;10.41;0.00;60892.56;4726630;29;20475;-88
2021/12/17 09:07:15;;;;;;;9.35;5.00;;;;;;;-145.06;0.00;60892.56;4722421;29;20576;-89
2021/12/17 09:09:53;;;;;;;8.52;4.47;;;;;;;10.52;0.00;60892.56;4719766;29;20468;-88
2021/12/17 09:12:33;;;;;;;8.38;4.75;;;;;;;10.45;0.00;60892.56;4712388;29;20071;-88
2021/12/17 09:15:12;;;;;;;6.97;4.30;;;;;;;-145.06;0.00;60892.56;4719344;29;20032;-88
2021/12/17 09:17:51;;;;;;;8.20;4.83;;;;;;;-145.06;0.00;60892.56;4716337;29;20670;-89
2021/12/17 09:20:30;;;;;;;7.28;4.50;;;;;;;-145.06;0.00;60892.56;4727228;29;20335;-88
2021/12/17 09:23:09;;;;;;;6.53;3.85;;;;;;;-145.06;0.00;60892.56;4726945;29;20111;-89
2021/12/17 09:25:48;;;;;;;6.07;3.87;;;;;;;10.52;0.00;60892.56;4725199;29;20032;-88
2021/12/17 09:28:29;;;;;;;5.75;3.70;;;;;;;10.49;0.00;60892.56;4707911;29;20491;-89
2021/12/17 09:31:12;;;;;;;7.00;4.40;;;;;;;10.49;0.00;60892.56;4713278;29;20375;-90
2021/12/17 09:33:51;;;;;;;7.07;4.57;;;;;;;-145.06;0.00;60892.56;4728665;29;20035;-88
2021/12/17 09:36:30;;;;;;;8.20;4.72;;;;;;;21.08;0.00;60892.56;4731015;29;20032;-89
2021/12/17 09:39:09;;;;;;;9.63;5.05;;;;;;;-145.06;0.00;60892.56;4715387;29;20068;-89
2021/12/17 09:41:50;;;;;;;9.07;5.23;;;;;;;10.51;0.00;60892.56;4725989;29;20028;-88
2021/12/17 09:44:29;;;;;;;7.63;4.38;;;;;;;-145.06;0.00;60892.56;4712301;29;20269;-89
2021/12/17 09:47:08;;;;;;;7.50;4.30;;;;;;;10.68;0.00;60892.56;4713010;29;20040;-89
2021/12/17 09:49:51;;;;;;;6.25;3.72;;;;;;;-145.06;0.00;60892.56;4711348;29;20036;-90
2021/12/17 09:52:30;;;;;;;5.70;3.88;;;;;;;10.68;0.00;60892.56;4720178;29;20029;-89
2021/12/17 09:55:09;;;;;;;5.60;3.47;;;;;;;10.53;0.00;60892.56;4725586;29;20028;-89
2021/12/17 09:57:48;;;;;;;6.80;4.15;;;;;;;-145.06;0.00;60892.56;4717980;29;20272;-88
2021/12/17 10:00:27;;;;;;;5.67;4.10;;;;;;;10.56;0.00;60892.56;4725187;29;20033;-88
2021/12/17 10:03:08;;;;;;;8.75;5.10;;;;;;;-145.06;0.00;60892.56;4715101;29;20037;-90
2021/12/17 10:05:47;;;;;;;8.60;4.57;;;;;;;10.54;0.00;60892.56;4718013;29;20037;-88
2021/12/17 10:08:26;;;;;;;7.13;4.37;;;;;;;-145.06;0.00;60892.56;4705236;29;20144;-88
2021/12/17 10:11:06;;;;;;;6.70;4.23;;;;;;;10.68;0.00;60892.56;4723894;29;20036;-88
2021/12/17 10:13:45;;;;;;;6.50;4.10;;;;;;;10.60;0.00;60892.56;4715843;29;20257;-88
2021/12/17 10:16:24;;;;;;;5.70;3.88;;;;;;;10.57;0.00;60892.56;4712852;29;20032;-88
2021/12/17 10:19:03;;;;;;;5.95;3.70;;;;;;;10.57;0.00;60892.56;4719621;29;20040;-88
2021/12/17 10:21:46;;;;;;;5.10;3.83;;;;;;;-145.06;0.00;60892.56;4712549;29;20040;-89
2021/12/17 10:24:25;;;;;;;5.10;3.55;;;;;;;-145.06;0.00;60892.56;4722108;29;20040;-89
2021/12/17 10:27:22;;;;;;;5.10;3.40;;;;;;;-145.06;0.00;60892.56;4717563;29;20064;-89
2021/12/17 10:30:21;;;;;;;6.25;3.55;;;;;;;-145.06;0.00;60892.56;4717294;29;20028;-90
2021/12/17 10:33:03;;;;;;;5.00;3.55;;;;;;;-145.06;0.00;60892.56;4727975;29;20036;-89
2021/12/17 10:35:47;;;;;;;5.78;3.58;;;;;;;10.60;0.00;60892.56;4726365;29;20040;-90
2021/12/17 10:38:26;;;;;;;13.63;6.72;;;;;;;-145.06;0.00;60892.56;4715681;29;20107;-89
2021/12/17 10:41:11;;;;;;;11.05;5.93;;;;;;;10.62;0.00;60892.56;4729325;29;20036;-89
2021/12/17 10:43:56;;;;;;;12.50;5.93;;;;;;;10.68;0.00;60892.56;4714645;29;20356;-89
2021/12/17 10:46:45;;;;;;;8.38;4.60;;;;;;;10.64;0.00;60892.56;4730981;29;20040;-90
2021/12/17 10:49:25;;;;;;;8.10;4.80;;;;;;;10.63;0.00;60892.56;4715195;29;20079;-89
2021/12/17 10:52:14;;;;;;;6.10;3.90;;;;;;;10.64;0.00;60892.56;4744984;29;20036;-89
2021/12/17 10:55:11;;;;;;;7.23;4.67;;;;;;;-145.06;0.00;60892.56;4733700;29;20028;-88
2021/12/17 10:57:50;;;;;;;6.13;3.92;;;;;;;10.68;0.00;60892.56;4712259;29;20268;-89
2021/12/17 11:00:30;;;;;;;6.18;4.03;;;;;;;-145.06;0.00;60892.56;4716226;29;20064;-89
2021/12/17 11:03:09;;;;;;;5.13;3.73;;;;;;;187.52;0.00;60892.56;4749760;29;20415;-89
2021/12/17 11:05:48;;;;;;;6.93;4.10;;;;;;;-145.06;0.00;60892.56;4755786;29;20028;-89
2021/12/17 11:08:30;;;;;;;6.53;3.95;;;;;;;10.68;0.00;60892.56;4712254;29;20120;-89
2021/12/17 11:11:12;;;;;;;5.88;4.18;;;;;;;-145.06;0.00;60892.56;4719946;29;20364;-90
2021/12/17 11:13:57;;;;;;;4.00;3.17;;;;;;;-145.06;0.00;60892.56;4727148;29;20119;-88
2021/12/17 11:16:38;;;;;;;5.93;3.75;;;;;;;-145.06;0.00;60892.56;4720785;29;20036;-89
2021/12/17 11:19:17;;;;;;;5.80;4.38;;;;;;;-145.06;0.00;60892.56;4722502;29;20024;-89
2021/12/17 11:21:56;;;;;;;6.13;3.93;;;;;;;11.01;0.00;60892.56;4715623;29;20032;-89
2021/12/17 11:24:37;;;;;;;6.68;4.15;;;;;;;-145.06;0.00;60892.56;4722020;29;20281;-88
2021/12/17 11:27:20;;;;;;;5.80;3.85;;;;;;;-145.06;0.00;60892.56;4734924;29;20067;-90
2021/12/17 11:30:00;;;;;;;5.65;3.78;;;;;;;-145.06;0.00;60892.56;4731789;29;20491;-88
2021/12/17 11:32:42;;;;;;;5.10;3.70;;;;;;;11.01;0.00;60892.56;4719908;29;20127;-89
2021/12/17 11:35:24;;;;;;;5.80;3.50;;;;;;;-145.06;0.00;60892.56;4714864;29;20037;-89
2021/12/17 11:38:12;;;;;;;5.63;4.13;;;;;;;-145.06;0.00;60892.56;4717606;29;20107;-89
2021/12/17 11:41:16;;;;;;;8.52;4.90;;;;;;;-145.06;0.00;60892.56;4722022;29;20103;-90
2021/12/17 11:44:01;;;;;;;7.30;4.65;;;;;;;-145.06;0.00;60892.56;4723268;29;20217;-89
2021/12/17 11:46:40;;;;;;;7.05;3.97;;;;;;;10.79;0.00;60892.56;4714828;29;20033;-88
2021/12/17 11:49:23;;;;;;;6.55;4.40;;;;;;;-145.06;0.00;60892.56;4714132;29;20046;-89
2021/12/17 11:52:03;;;;;;;6.15;3.85;;;;;;;-145.06;0.00;60892.56;4726653;29;20039;-90
2021/12/17 11:54:43;;;;;;;5.53;3.78;;;;;;;-145.06;0.00;60892.56;4708116;29;20115;-90
2021/12/17 11:57:42;;;;;;;6.10;4.00;;;;;;;10.82;0.00;60892.56;4729908;29;20115;-89
2021/12/17 12:00:25;;;;;;;5.20;3.58;;;;;;;-145.06;0.00;60892.56;4715721;29;20040;-89
2021/12/17 12:03:34;;;;;;;5.55;3.65;;;;;;;187.52;0.00;60892.56;4735438;29;20584;-89
2021/12/17 12:06:33;;;;;;;5.80;3.83;;;;;;;-145.06;0.00;60892.56;4725321;29;20080;-89
2021/12/17 12:09:13;;;;;;;6.05;4.13;;;;;;;10.82;0.00;60892.56;4720481;29;20040;-91
2021/12/17 12:12:08;;;;;;;;;;;;;;;-145.06;0.00;60892.56;4720966;29;20033;-89
2021/12/17 12:14:47;;;;;;;4.60;3.00;;;;;;;11.98;0.00;60892.56;4721301;29;20246;-89
2021/12/17 12:17:57;;;;;;;6.05;3.92;;;;;;;-145.06;0.00;60892.56;4729230;29;20752;-89
2021/12/17 12:20:42;;;;;;;5.72;3.65;;;;;;;-145.06;0.00;60892.56;4722668;29;20028;-89
2021/12/17 12:23:27;;;;;;;6.20;3.75;;;;;;;-145.06;0.00;60892.56;4743513;29;20036;-90
2021/12/17 12:26:15;;;;;;;6.90;4.25;;;;;;;-145.06;0.00;60892.56;4725584;29;20029;-90
2021/12/17 12:29:05;;;;;;;6.50;4.00;;;;;;;-145.06;0.00;60892.56;4729593;29;20025;-90
2021/12/17 12:32:05;;;;;;;5.47;3.88;;;;;;;13.28;0.00;60892.56;4721572;29;20055;-90
2021/12/17 12:34:45;;;;;;;5.88;4.03;;;;;;;-145.06;0.00;60892.56;4705622;29;20451;-89
2021/12/17 12:37:26;;;;;;;6.03;4.20;;;;;;;-145.06;0.00;60892.56;4735661;29;20033;-90
2021/12/17 12:40:15;;;;;;;5.30;3.80;;;;;;;-145.06;0.00;60892.56;4729703;29;20376;-89
2021/12/17 12:42:55;;;;;;;7.78;4.53;;;;;;;11.98;0.00;60892.56;4711654;29;20033;-89
2021/12/17 12:45:39;;;;;;;7.25;4.65;;;;;;;-145.06;0.00;60892.56;4711087;29;20037;-89
2021/12/17 12:48:38;;;;;;;6.28;4.50;;;;;;;10.77;0.00;60892.56;4721395;29;20044;-89
2021/12/17 12:51:22;;;;;;;5.65;3.97;;;;;;;-145.06;0.00;60892.56;4728514;29;20111;-89
2021/12/17 12:54:08;;;;;;;6.45;4.35;;;;;;;-145.06;0.00;60892.56;4729282;29;20554;-89
2021/12/17 12:56:47;;;;;;;9.63;4.40;;;;;;;11.01;0.00;60892.56;4712946;29;20024;-88
2021/12/17 12:59:27;;;;;;;7.30;4.65;;;;;;;-145.06;0.00;60892.56;4726023;29;20032;-89
2021/12/17 13:02:06;;;;;;;6.07;3.90;;;;;;;10.80;0.00;60892.56;4726927;29;20044;-89
2021/12/17 13:04:45;;;;;;;6.30;4.38;;;;;;;11.01;0.00;60892.56;4725284;29;20028;-89
2021/12/17 13:07:34;;;;;;;6.57;4.35;;;;;;;-145.06;0.00;60892.56;4723863;29;20040;-89
2021/12/17 13:10:29;;;;;;;6.35;4.22;;;;;;;-145.06;0.00;60892.56;4722946;29;20103;-90
2021/12/17 13:16:23;;;;;;;6.07;3.67;;;;;;;-145.06;0.00;60892.56;4725104;29;20116;-90
2021/12/17 13:22:24;;;;;;;5.57;3.58;;;;;;;-145.06;0.00;60892.56;4717079;29;20622;-89
2021/12/17 13:25:01;;;;;;;7.65;3.38;;;;;;;-145.06;0.00;60892.56;4733890;29;20037;-89
2021/12/17 13:27:51;;;;;;;4.47;3.17;;;;;;;-145.06;0.00;60892.56;4711141;29;20402;-89
2021/12/17 13:30:30;;;;;;;3.95;2.80;;;;;;;-145.06;0.00;60892.56;4728005;29;20029;-89
2021/12/17 13:33:09;;;;;;;5.13;3.37;;;;;;;10.85;0.00;60892.56;4720764;29;20028;-89
2021/12/17 13:35:48;;;;;;;4.47;2.93;;;;;;;-145.06;0.00;60892.56;4719507;29;20162;-89
2021/12/17 13:38:31;;;;;;;5.10;3.08;;;;;;;10.85;0.00;60892.56;4699365;29;20510;-89
2021/12/17 13:41:10;;;;;;;5.28;2.83;;;;;;;-145.06;0.00;60892.56;4733149;29;20044;-88
2021/12/17 13:43:49;;;;;;;5.30;2.92;;;;;;;-145.06;0.00;60892.56;4700369;29;20028;-88
2021/12/17 13:46:28;;;;;;;3.78;2.38;;;;;;;-145.06;0.00;60892.56;4730196;29;20036;-88
2021/12/17 13:49:07;;;;;;;4.57;3.07;;;;;;;-145.06;0.00;60892.56;4718335;29;20491;-89
2021/12/17 13:51:46;;;;;;;4.47;2.90;;;;;;;-145.06;0.00;60892.56;4737989;29;20032;-89
2021/12/17 13:54:28;;;;;;;5.27;3.10;;;;;;;-145.06;0.00;60892.56;4713117;29;20036;-88
2021/12/17 13:57:11;;;;;;;6.03;3.47;;;;;;;10.85;0.00;60892.56;4737443;29;20272;-90
2021/12/17 13:59:51;;;;;;;5.18;3.03;;;;;;;-145.06;0.00;60892.56;4736174;29;20570;-90
2021/12/17 14:02:34;;;;;;;6.45;3.70;;;;;;;-145.06;0.00;60892.56;4736167;29;20047;-89
2021/12/17 14:05:28;;;;;;;6.00;3.10;;;;;;;-145.06;0.00;60892.56;4716642;29;20500;-89
2021/12/17 14:08:09;;;;;;;6.22;3.30;;;;;;;-145.06;0.00;60892.56;4721373;29;20029;-89
2021/12/17 14:10:51;;;;;;;5.55;3.10;;;;;;;-145.06;0.00;60892.56;4717751;29;20107;-89
2021/12/17 14:13:30;;;;;;;6.05;2.97;;;;;;;-145.06;0.00;60892.56;4722246;29;20025;-89
2021/12/17 14:16:09;;;;;;;5.27;2.60;;;;;;;11.01;0.00;60892.56;4725876;29;20036;-89
2021/12/17 14:18:55;;;;;;;5.07;2.90;;;;;;;10.67;0.00;60892.56;4721856;29;20047;-88
2021/12/17 14:21:36;;;;;;;6.53;2.92;;;;;;;10.65;0.00;60892.56;4722167;29;20028;-90
2021/12/17 14:24:29;;;;;;;5.82;3.25;;;;;;;10.66;0.00;60892.56;4730660;29;20017;-89
2021/12/17 14:27:08;;;;;;;8.60;3.65;;;;;;;-145.06;0.00;60892.56;4745903;29;20058;-89
2021/12/17 14:30:01;;;;;;;5.35;3.17;;;;;;;-145.06;0.00;60892.56;4726968;29;20111;-89
2021/12/17 14:32:45;;;;;;;5.85;3.35;;;;;;;-145.06;0.00;60892.56;4722603;29;20051;-90
2021/12/17 14:35:39;;;;;;;7.57;3.40;;;;;;;-145.06;0.00;60892.56;4712417;29;20041;-89
2021/12/17 14:38:41;;;;;;;7.25;3.63;;;;;;;-145.06;0.00;60892.56;4737982;29;20478;-90
2021/12/17 14:41:31;;;;;;;6.43;3.42;;;;;;;-145.06;0.00;60892.56;4736888;29;20036;-89
2021/12/17 14:44:30;;;;;;;6.32;2.97;;;;;;;10.65;0.00;60892.56;4739035;29;20028;-88
2021/12/17 14:47:30;;;;;;;6.63;3.05;;;;;;;-145.06;0.00;60892.56;4726810;29;20037;-89
2021/12/17 15:02:10;;;;;;;9.02;3.90;;;;;;;-145.06;0.00;60892.56;4730195;29;20037;-88
2021/12/17 15:04:49;;;;;;;6.75;3.25;;;;;;;-145.06;0.00;60892.56;4722962;29;20025;-89
2021/12/17 15:07:29;;;;;;;;;;;;;;;-145.06;0.00;60892.56;4737730;29;20494;-87
2021/12/17 15:10:10;;;;;;;7.13;3.57;;;;;;;-145.06;0.00;60892.56;4732380;29;19916;-88
2021/12/17 15:12:51;;;;;;;8.20;4.15;;;;;;;-145.06;0.00;60892.56;4717594;29;20032;-87
2021/12/17 15:15:36;;;;;;;8.48;4.00;;;;;;;187.52;0.00;60892.56;4714304;29;20028;-88
2021/12/17 15:18:19;;;;;;;8.98;4.28;;;;;;;-145.06;0.00;60892.56;4710762;29;20146;-87
2021/12/17 15:20:58;;;;;;;8.68;4.30;;;;;;;-145.06;0.00;60892.56;4714614;29;20032;-88
2021/12/17 15:23:37;;;;;;;9.30;4.73;;;;;;;-145.06;0.00;60892.56;4714367;29;20064;-87